createdAt,value
2023-07-05T00:00:18.318Z,100791.81
2023-07-05T00:02:48.352Z,100793.53
2023-07-05T00:05:18.586Z,100788.25
2023-07-05T00:07:48.711Z,100794.44
2023-07-05T00:10:21.644Z,100792.69
2023-07-05T00:12:51.617Z,100790.97
2023-07-05T00:15:21.704Z,100789.22
2023-07-05T00:17:51.744Z,100776.09
2023-07-05T00:20:21.881Z,100778.75
2023-07-05T00:22:51.976Z,100779.63
2023-07-05T00:25:24.587Z,100781.41
2023-07-05T00:27:54.505Z,100776.16
2023-07-05T00:30:24.724Z,100763.88
2023-07-05T00:32:54.691Z,100753.34
2023-07-05T00:35:24.825Z,100756.91
2023-07-05T00:37:54.872Z,100763.03
2023-07-05T00:40:27.489Z,100743.69
2023-07-05T00:42:57.496Z,100737.50
2023-07-05T00:45:55.789Z,100728.72
2023-07-05T00:48:29.443Z,100728.75
2023-07-05T00:51:01.069Z,100722.59
2023-07-05T00:53:31.684Z,100712.94
2023-07-05T00:56:04.752Z,100714.63
2023-07-05T00:58:35.085Z,100707.59
2023-07-05T01:01:05.841Z,100712.00
2023-07-05T01:03:37.354Z,100706.72
2023-07-05T01:06:09.421Z,100709.38
2023-07-05T01:08:39.588Z,100705.84
2023-07-05T01:11:13.505Z,100692.63
2023-07-05T01:13:47.663Z,100693.53
2023-07-05T01:16:27.098Z,100683.88
2023-07-05T01:19:04.904Z,100682.09
2023-07-05T01:21:41.097Z,100664.50
2023-07-05T01:24:32.001Z,100662.72
2023-07-05T01:27:31.820Z,100660.94
2023-07-05T01:30:25.232Z,100655.66
2023-07-05T01:33:01.554Z,100641.59
2023-07-05T01:35:35.003Z,100628.47
2023-07-05T01:38:09.486Z,100625.78
2023-07-05T01:40:59.542Z,100623.19
2023-07-05T01:43:30.648Z,100620.56
2023-07-05T01:46:19.958Z,100621.50
2023-07-05T01:49:18.616Z,100613.59
2023-07-05T01:51:52.590Z,100608.31
2023-07-05T01:54:25.813Z,100596.88
2023-07-05T01:57:00.198Z,100594.28
2023-07-05T01:59:35.774Z,100589.91
2023-07-05T02:02:07.379Z,100591.69
2023-07-05T02:04:40.760Z,100596.09
2023-07-05T02:07:11.021Z,100582.88
2023-07-05T02:09:44.056Z,100586.44
2023-07-05T02:12:14.444Z,100569.78
2023-07-05T02:14:44.421Z,100551.31
2023-07-05T02:17:14.624Z,100543.38
2023-07-05T02:19:47.166Z,100529.34
2023-07-05T02:25:15.520Z,100500.38
2023-07-05T02:27:45.409Z,100492.47
2023-07-05T02:30:16.468Z,100488.09
2023-07-05T02:32:47.377Z,100476.63
2023-07-05T02:35:20.731Z,100470.50
2023-07-05T02:37:51.215Z,100473.16
2023-07-05T02:40:21.212Z,100463.47
2023-07-05T02:42:50.975Z,100459.09
2023-07-05T02:45:21.275Z,100459.97
2023-07-05T02:47:51.174Z,100439.72
2023-07-05T02:50:23.933Z,100436.22
2023-07-05T02:52:53.732Z,100430.09
2023-07-05T02:55:23.594Z,100426.53
2023-07-05T02:57:53.466Z,100424.81
2023-07-05T03:00:24.188Z,100434.44
2023-07-05T03:02:54.229Z,100432.69
2023-07-05T03:05:26.799Z,100430.03
2023-07-05T03:07:56.762Z,100408.06
2023-07-05T03:10:26.629Z,100406.31
2023-07-05T03:12:56.486Z,100422.16
2023-07-05T03:15:26.361Z,100409.81
2023-07-05T03:17:56.199Z,100415.13
2023-07-05T03:20:28.691Z,100420.38
2023-07-05T03:22:58.609Z,100424.78
2023-07-05T03:25:28.835Z,100449.38
2023-07-05T03:27:58.652Z,100452.03
2023-07-05T03:30:28.797Z,100427.41
2023-07-05T03:32:59.232Z,100414.19
2023-07-05T03:35:33.746Z,100402.75
2023-07-05T03:38:03.651Z,100374.59
2023-07-05T03:40:33.410Z,100374.59
2023-07-05T03:43:05.817Z,100369.34
2023-07-05T03:45:38.492Z,100358.78
2023-07-05T03:48:08.762Z,100357.00
2023-07-05T03:50:41.169Z,100357.00
2023-07-05T03:53:11.448Z,100356.13
2023-07-05T03:55:41.370Z,100349.09
2023-07-05T03:58:11.137Z,100348.22
2023-07-05T04:00:40.921Z,100364.06
2023-07-05T04:03:11.285Z,100357.00
2023-07-05T04:05:43.758Z,100366.66
2023-07-05T04:08:13.532Z,100339.44
2023-07-05T04:10:50.366Z,100316.59
2023-07-05T04:13:19.933Z,100328.88
2023-07-05T04:15:49.506Z,100335.91
2023-07-05T04:18:19.354Z,100337.66
2023-07-05T04:20:52.028Z,100326.25
2023-07-05T04:23:22.162Z,100321.84
2023-07-05T04:25:51.941Z,100312.19
2023-07-05T04:28:21.770Z,100329.75
2023-07-05T04:30:51.847Z,100335.88
2023-07-05T04:33:21.754Z,100320.09
2023-07-05T04:35:55.486Z,100299.00
2023-07-05T04:38:25.492Z,100296.38
2023-07-05T04:40:55.847Z,100303.41
2023-07-05T04:43:54.642Z,100294.63
2023-07-05T04:46:25.095Z,100277.06
2023-07-05T04:48:54.916Z,100269.13
2023-07-05T04:51:27.086Z,100252.44
2023-07-05T04:53:56.818Z,100256.81
2023-07-05T04:56:26.585Z,100255.94
2023-07-05T04:58:56.354Z,100244.53
2023-07-05T05:01:26.832Z,100245.41
2023-07-05T05:03:56.826Z,100229.56
2023-07-05T05:06:29.350Z,100236.59
2023-07-05T05:09:00.111Z,100229.59
2023-07-05T05:11:30.737Z,100231.34
2023-07-05T05:14:01.286Z,100232.22
2023-07-05T05:16:31.133Z,100222.56
2023-07-05T05:19:00.890Z,100220.78
2023-07-05T05:21:33.205Z,100212.00
2023-07-05T05:24:03.673Z,100211.13
2023-07-05T05:26:33.410Z,100208.47
2023-07-05T05:29:03.169Z,100197.03
2023-07-05T05:31:32.967Z,100186.50
2023-07-05T05:34:03.724Z,100182.97
2023-07-05T05:36:36.041Z,100187.38
2023-07-05T05:39:06.395Z,100181.22
2023-07-05T05:41:36.161Z,100180.34
2023-07-05T05:44:05.881Z,100185.63
2023-07-05T05:46:35.709Z,100179.44
2023-07-05T05:49:05.497Z,100182.06
2023-07-05T05:51:37.911Z,100179.47
2023-07-05T05:54:07.676Z,100185.59
2023-07-05T05:56:37.778Z,100167.16
2023-07-05T05:59:07.555Z,100165.41
2023-07-05T06:01:37.390Z,100169.81
2023-07-05T06:04:07.567Z,100170.66
2023-07-05T06:06:40.015Z,100175.94
2023-07-05T06:09:11.356Z,100185.63
2023-07-05T06:11:41.123Z,100180.34
2023-07-05T06:14:12.030Z,100171.53
2023-07-05T06:16:41.796Z,100172.41
2023-07-05T06:19:11.588Z,100163.63
2023-07-05T06:21:43.927Z,100160.09
2023-07-05T06:24:13.774Z,100160.09
2023-07-05T06:26:43.543Z,100174.16
2023-07-05T06:29:13.477Z,100169.78
2023-07-05T06:31:43.291Z,100173.28
2023-07-05T06:34:13.043Z,100160.09
2023-07-05T06:36:45.524Z,100154.81
2023-07-05T06:39:15.354Z,100157.47
2023-07-05T06:41:45.163Z,100156.63
2023-07-05T06:44:14.924Z,100154.84
2023-07-05T06:46:44.802Z,100152.19
2023-07-05T06:49:14.629Z,100146.94
2023-07-05T06:51:47.063Z,100140.78
2023-07-05T06:54:16.845Z,100146.03
2023-07-05T06:56:46.602Z,100131.06
2023-07-05T06:59:16.387Z,100127.56
2023-07-05T07:01:46.551Z,100128.41
2023-07-05T07:04:16.865Z,100128.38
2023-07-05T07:06:49.336Z,100120.50
2023-07-05T07:09:19.555Z,100135.44
2023-07-05T07:11:49.303Z,100133.63
2023-07-05T07:14:19.058Z,100137.13
2023-07-05T07:16:49.010Z,100142.41
2023-07-05T07:19:19.032Z,100141.53
2023-07-05T07:21:51.430Z,100138.88
2023-07-05T07:24:21.250Z,100129.16
2023-07-05T07:26:52.648Z,100133.50
2023-07-05T07:29:22.429Z,100141.38
2023-07-05T07:31:52.234Z,100141.34
2023-07-05T07:34:22.089Z,100147.47
2023-07-05T07:36:54.458Z,100144.75
2023-07-05T07:39:24.344Z,100142.97
2023-07-05T07:41:54.108Z,100142.97
2023-07-05T07:44:23.887Z,100136.81
2023-07-05T07:46:53.687Z,100141.19
2023-07-05T07:49:23.760Z,100138.56
2023-07-05T07:51:56.182Z,100135.00
2023-07-05T07:54:27.709Z,100150.00
2023-07-05T07:56:58.838Z,100134.13
2023-07-05T08:17:58.475Z,100138.75
2023-07-05T08:20:28.203Z,100144.84
2023-07-05T08:22:57.961Z,100151.09
2023-07-05T08:25:27.701Z,100155.56
2023-07-05T08:27:57.722Z,100160.13
2023-07-05T08:30:30.100Z,100170.47
2023-07-05T08:32:59.902Z,100175.41
2023-07-05T08:35:30.813Z,100172.34
2023-07-05T08:38:00.535Z,100166.78
2023-07-05T08:40:36.903Z,100171.78
2023-07-05T08:43:09.649Z,100173.19
2023-07-05T08:45:47.076Z,100186.97
2023-07-05T08:48:19.444Z,100189.41
2023-07-05T08:51:00.850Z,100185.03
2023-07-05T08:53:48.679Z,100181.06
2023-07-05T08:56:23.144Z,100193.81
2023-07-05T08:58:57.519Z,100206.75
2023-07-05T09:01:32.604Z,100216.19
2023-07-05T09:04:02.632Z,100209.88
2023-07-05T09:06:39.566Z,100216.00
2023-07-05T09:09:22.183Z,100215.41
2023-07-05T09:12:04.338Z,100215.63
2023-07-05T09:14:43.779Z,100231.75
2023-07-05T09:17:22.259Z,100210.81
2023-07-05T09:19:57.578Z,100221.03
2023-07-05T09:22:31.156Z,100221.97
2023-07-05T09:25:01.051Z,100227.75
2023-07-05T09:27:33.302Z,100240.88
2023-07-05T09:30:05.879Z,100230.78
2023-07-05T09:32:42.798Z,100239.25
2023-07-05T09:35:17.420Z,100240.53
2023-07-05T09:37:54.161Z,100220.88
2023-07-05T09:40:27.579Z,100228.75
2023-07-05T09:43:00.957Z,100226.16
2023-07-05T09:45:31.096Z,100222.84
2023-07-05T09:48:05.614Z,100201.03
2023-07-05T09:50:36.136Z,100205.00
2023-07-05T09:53:25.785Z,100212.47
2023-07-05T09:56:06.252Z,100188.16
2023-07-05T09:58:36.170Z,100199.81
2023-07-05T10:01:06.923Z,100197.16
2023-07-05T10:03:40.888Z,100216.63
2023-07-05T10:06:14.678Z,100208.63
2023-07-05T10:08:48.419Z,100204.03
2023-07-05T10:11:26.336Z,100208.41
2023-07-05T10:14:07.135Z,100209.75
2023-07-05T10:16:55.929Z,100218.34
2023-07-05T10:19:33.972Z,100235.59
2023-07-05T10:22:10.289Z,100220.88
2023-07-05T10:24:46.188Z,100222.22
2023-07-05T10:27:25.777Z,100221.47
2023-07-05T10:30:01.712Z,100235.63
2023-07-05T10:32:32.400Z,100235.28
2023-07-05T10:35:05.596Z,100246.38
2023-07-05T10:37:37.138Z,100239.47
2023-07-05T10:40:09.771Z,100236.13
2023-07-05T10:42:40.295Z,100254.03
2023-07-05T10:45:12.020Z,100257.63
2023-07-05T10:47:42.523Z,100256.66
2023-07-05T10:50:16.260Z,100264.75
2023-07-05T10:52:53.632Z,100254.97
2023-07-05T10:55:26.226Z,100251.25
2023-07-05T10:57:58.170Z,100257.84
2023-07-05T11:00:39.068Z,100261.84
2023-07-05T11:03:13.323Z,100243.25
2023-07-05T11:05:49.396Z,100242.97
2023-07-05T11:08:20.840Z,100241.81
2023-07-05T11:10:51.797Z,100241.34
2023-07-05T11:13:23.613Z,100233.34
2023-07-05T11:15:56.899Z,100250.88
2023-07-05T11:18:29.966Z,100260.25
2023-07-05T11:21:04.171Z,100260.53
2023-07-05T11:23:58.899Z,100259.31
2023-07-05T11:26:40.212Z,100268.38
2023-07-05T11:29:49.347Z,100278.13
2023-07-05T11:32:19.466Z,100271.09
2023-07-05T11:34:54.613Z,100269.38
2023-07-05T11:37:40.855Z,100283.16
2023-07-05T11:40:40.472Z,100278.91
2023-07-05T11:43:27.775Z,100294.63
2023-07-05T11:45:57.587Z,100274.69
2023-07-05T11:48:46.831Z,100268.09
2023-07-05T11:51:37.416Z,100281.63
2023-07-05T11:54:11.281Z,100273.97
2023-07-05T14:01:04.690Z,100330.63
2023-07-05T14:03:52.398Z,100341.13
2023-07-05T14:06:26.841Z,100343.81
2023-07-05T14:08:57.051Z,100339.41
2023-07-05T14:11:29.342Z,100345.69
2023-07-05T14:14:01.650Z,100347.41
2023-07-05T14:16:34.741Z,100378.22
2023-07-05T14:19:05.456Z,100360.53
2023-07-05T14:21:38.253Z,100354.28
2023-07-05T14:24:10.004Z,100373.63
2023-07-05T14:26:40.407Z,100372.66
2023-07-05T14:29:10.225Z,100343.50
2023-07-05T14:31:43.653Z,100380.63
2023-07-05T14:34:16.712Z,100364.72
2023-07-05T14:36:46.755Z,100367.16
2023-07-05T14:39:16.604Z,100367.03
2023-07-05T14:41:46.814Z,100367.81
2023-07-05T14:44:16.931Z,100378.31
2023-07-05T14:46:50.134Z,100386.28
2023-07-05T14:49:20.000Z,100377.47
2023-07-05T14:51:51.002Z,100383.63
2023-07-05T14:54:21.752Z,100391.69
2023-07-05T14:56:51.946Z,100389.13
2023-07-05T14:59:22.657Z,100402.38
2023-07-05T15:02:00.817Z,100400.50
2023-07-05T15:04:30.678Z,100413.63
2023-07-05T15:07:00.589Z,100407.34
2023-07-05T15:09:30.560Z,100409.22
2023-07-05T15:12:00.666Z,100404.94
2023-07-05T15:14:30.501Z,100427.97
2023-07-05T15:17:03.363Z,100414.88
2023-07-05T15:19:33.234Z,100424.66
2023-07-05T15:22:04.752Z,100418.59
2023-07-05T15:24:34.884Z,100421.31
2023-07-05T15:27:05.153Z,100440.72
2023-07-05T15:29:35.017Z,100414.16
2023-07-05T15:32:08.542Z,100422.91
2023-07-05T15:34:42.503Z,100419.25
2023-07-05T15:37:12.622Z,100412.16
2023-07-05T15:39:42.461Z,100422.00
2023-07-05T15:42:12.722Z,100430.81
2023-07-05T15:44:42.764Z,100456.50
2023-07-05T15:47:15.287Z,100444.19
2023-07-05T15:49:45.938Z,100437.19
2023-07-05T15:52:15.737Z,100453.94
2023-07-05T15:54:45.652Z,100460.22
2023-07-05T15:57:17.035Z,100460.25
2023-07-05T15:59:58.905Z,100470.03
2023-07-05T16:02:41.957Z,100481.56
2023-07-05T16:05:13.307Z,100502.78
2023-07-05T16:07:43.110Z,100486.06
2023-07-05T16:10:14.977Z,100503.72
2023-07-05T16:12:46.024Z,100521.41
2023-07-05T16:15:16.224Z,100524.94
2023-07-05T16:17:50.014Z,100529.41
2023-07-05T16:20:20.015Z,100527.66
2023-07-05T16:22:49.852Z,100533.81
2023-07-05T16:25:20.918Z,100531.19
2023-07-05T16:27:50.692Z,100551.50
2023-07-05T16:30:21.746Z,100545.34
2023-07-05T16:32:54.197Z,100548.88
2023-07-05T16:35:25.031Z,100573.56
2023-07-05T16:37:54.944Z,100567.41
2023-07-05T16:40:25.026Z,100567.41
2023-07-05T16:42:55.511Z,100567.38
2023-07-05T16:45:27.626Z,100563.00
2023-07-05T16:48:00.102Z,100574.44
2023-07-05T16:50:30.110Z,100582.38
2023-07-05T16:53:01.238Z,100583.28
2023-07-05T16:55:31.161Z,100580.59
2023-07-05T16:58:00.949Z,100587.66
2023-07-05T17:00:30.740Z,100583.25
2023-07-05T17:03:03.137Z,100579.69
2023-07-05T17:05:33.880Z,100594.72
2023-07-05T17:08:03.559Z,100606.19
2023-07-05T17:10:33.532Z,100621.19
2023-07-05T17:13:04.097Z,100611.50
2023-07-05T17:15:33.757Z,100621.22
2023-07-05T17:18:07.154Z,100622.09
2023-07-05T17:20:37.726Z,100615.00
2023-07-05T17:23:07.665Z,100615.00
2023-07-05T17:25:37.798Z,100632.63
2023-07-05T17:28:09.819Z,100631.78
2023-07-05T17:30:41.563Z,100629.97
2023-07-05T17:33:13.988Z,100647.63
2023-07-05T17:35:47.715Z,100647.63
2023-07-05T17:38:17.659Z,100642.34
2023-07-05T17:40:50.451Z,100652.03
2023-07-05T17:43:21.132Z,100647.59
2023-07-05T17:45:51.172Z,100652.91
2023-07-05T17:48:23.581Z,100663.47
2023-07-05T17:50:53.608Z,100673.19
2023-07-05T17:53:23.841Z,100663.50
2023-07-05T17:55:56.742Z,100668.78
2023-07-05T17:58:26.484Z,100664.38
2023-07-05T18:00:56.569Z,100668.75
2023-07-05T18:03:29.882Z,100668.78
2023-07-05T18:05:59.735Z,100668.78
2023-07-05T18:08:29.665Z,100685.56
2023-07-05T18:11:00.496Z,100675.84
2023-07-05T18:13:31.630Z,100686.44
2023-07-05T18:16:03.106Z,100698.78
2023-07-05T18:18:36.170Z,100702.31
2023-07-05T18:21:08.017Z,100695.28
2023-07-05T18:23:39.016Z,100701.44
2023-07-05T18:26:13.615Z,100710.28
2023-07-05T18:28:43.711Z,100712.88
2023-07-05T18:31:14.047Z,100723.44
2023-07-05T18:33:46.512Z,100734.03
2023-07-05T18:36:21.291Z,100751.63
2023-07-05T18:38:52.480Z,100743.69
2023-07-05T18:41:24.569Z,100746.34
2023-07-05T18:43:54.739Z,100755.16
2023-07-05T18:46:24.735Z,100749.84
2023-07-05T18:48:57.224Z,100761.25
2023-07-05T18:51:26.956Z,100767.44
2023-07-05T18:53:56.702Z,100768.31
2023-07-05T18:56:26.524Z,100775.41
2023-07-05T18:58:56.303Z,100777.13
2023-07-05T19:01:26.138Z,100772.72
2023-07-05T19:03:58.964Z,100787.66
2023-07-05T19:06:29.818Z,100785.91
2023-07-05T19:08:59.569Z,100781.50
2023-07-05T19:11:31.911Z,100790.28
2023-07-05T19:14:02.069Z,100795.53
2023-07-05T19:16:32.111Z,100797.31
2023-07-05T19:19:05.791Z,100805.22
2023-07-05T19:21:35.884Z,100812.22
2023-07-05T19:24:05.961Z,100806.06
2023-07-05T19:26:36.286Z,100803.44
2023-07-05T19:29:06.008Z,100809.63
2023-07-05T19:31:36.044Z,100817.53
2023-07-05T19:34:08.530Z,100821.00
2023-07-05T19:36:38.545Z,100821.84
2023-07-05T19:39:08.379Z,100830.63
2023-07-05T19:41:38.247Z,100836.78
2023-07-05T19:44:08.524Z,100838.53
2023-07-05T19:46:38.731Z,100835.91
2023-07-05T19:49:11.898Z,100846.44
2023-07-05T19:51:41.780Z,100848.16
2023-07-05T19:54:11.666Z,100862.25
2023-07-05T19:56:41.937Z,100861.31
2023-07-05T20:01:54.330Z,100863.03
2023-07-05T20:04:27.304Z,100864.78
2023-07-05T20:06:57.111Z,100870.88
2023-07-05T20:09:27.068Z,100872.66
2023-07-05T20:11:56.864Z,100880.59
2023-07-05T20:14:27.061Z,100875.28
2023-07-05T20:16:57.205Z,100876.16
2023-07-05T20:19:33.290Z,100878.78
2023-07-05T20:22:03.048Z,100889.31
2023-07-05T20:24:32.747Z,100885.75
2023-07-05T20:27:03.030Z,100893.69
2023-07-05T20:29:34.170Z,100895.41
2023-07-05T20:32:04.022Z,100895.34
2023-07-05T20:34:36.784Z,100893.56
2023-07-05T20:37:07.470Z,100902.38
2023-07-05T20:39:37.181Z,100898.81
2023-07-05T20:42:09.857Z,100897.00
2023-07-05T20:44:39.734Z,100900.53
2023-07-05T20:47:18.666Z,100906.56
2023-07-05T20:49:51.718Z,100904.81
2023-07-05T20:52:21.446Z,100910.94
2023-07-05T20:54:51.137Z,100909.13
2023-07-05T20:57:22.110Z,100917.03
2023-07-05T20:59:52.362Z,100914.28
2023-07-05T21:02:22.123Z,100911.59
2023-07-05T21:04:54.498Z,100917.69
2023-07-05T21:07:26.094Z,100924.78
2023-07-05T21:09:55.804Z,100928.28
2023-07-05T21:12:25.614Z,100924.78
2023-07-05T21:14:55.381Z,100930.84
2023-07-05T21:17:25.164Z,100938.75
2023-07-05T21:19:57.498Z,100946.66
2023-07-05T21:22:27.312Z,100950.16
2023-07-05T21:24:57.058Z,100957.22
2023-07-05T21:27:26.800Z,100952.78
2023-07-05T21:29:56.570Z,100944.88
2023-07-05T21:32:26.383Z,100953.63
2023-07-05T21:34:58.750Z,100953.59
2023-07-05T21:37:28.460Z,100946.56
2023-07-05T21:39:58.230Z,100960.63
2023-07-05T21:42:28.274Z,100958.75
2023-07-05T21:44:58.269Z,100961.44
2023-07-05T21:47:28.060Z,100956.13
2023-07-05T21:50:00.461Z,100963.09
2023-07-05T21:52:30.738Z,100971.84
2023-07-05T21:55:00.639Z,100976.28
2023-07-05T21:57:30.478Z,100981.56
2023-07-05T22:00:00.247Z,100993.06
2023-07-05T22:02:30.684Z,100993.13
2023-07-05T22:05:03.624Z,101009.00
2023-07-05T22:07:33.809Z,100997.59
2023-07-05T22:10:03.514Z,101003.84
2023-07-05T22:12:33.231Z,101005.56
2023-07-05T22:15:03.308Z,101005.59
2023-07-05T22:17:33.627Z,100997.72
2023-07-05T22:20:12.773Z,101002.13
2023-07-05T22:22:44.274Z,101010.00
2023-07-05T22:25:14.776Z,101008.19
2023-07-05T22:27:44.603Z,101014.31
2023-07-05T22:30:16.176Z,101005.44
2023-07-05T22:32:46.526Z,101014.22
2023-07-05T22:35:20.078Z,101015.91
2023-07-05T22:37:53.898Z,101013.22
2023-07-05T22:40:24.927Z,101009.59
2023-07-05T22:42:54.771Z,101010.38
2023-07-05T22:45:26.576Z,101014.81
2023-07-05T22:47:58.223Z,101018.28
2023-07-05T22:50:30.729Z,101025.31
2023-07-05T22:53:00.838Z,101017.28
2023-07-05T22:55:30.606Z,101022.50
2023-07-05T22:58:00.330Z,101021.66
2023-07-05T23:00:30.182Z,101019.91
2023-07-05T23:03:00.238Z,101033.00
2023-07-05T23:05:32.700Z,101033.03
2023-07-05T23:08:02.650Z,101037.44
2023-07-05T23:10:32.397Z,101037.34
2023-07-05T23:13:02.380Z,101037.22
2023-07-05T23:15:32.551Z,101040.69
2023-07-05T23:18:02.463Z,101045.94
2023-07-05T23:20:36.096Z,101040.66
2023-07-05T23:23:06.461Z,101046.81
2023-07-05T23:25:36.323Z,101047.69
2023-07-05T23:28:07.266Z,101046.78
2023-07-05T23:30:37.371Z,101047.59
2023-07-05T23:33:08.241Z,101044.00
2023-07-05T23:35:40.585Z,101049.31
2023-07-05T23:38:10.332Z,101063.28
2023-07-05T23:40:40.073Z,101058.88
2023-07-05T23:43:09.820Z,101065.78
2023-07-05T23:45:39.920Z,101060.47
2023-07-05T23:48:10.573Z,101071.06
2023-07-05T23:50:43.018Z,101070.19
2023-07-05T23:53:14.327Z,101067.38
2023-07-05T23:55:47.707Z,101066.41
2023-07-05T23:58:17.796Z,101069.97
